sensor_id;sensor_type;location;lat;lon;timestamp;P1;durP1;ratioP1;P2;durP2;ratioP2
57846;SDS011;43675;50.030;21.952;2023-11-21T00:01:25;25.00;;;23.20;;
57846;SDS011;43675;50.030;21.952;2023-11-21T00:03:51;23.30;;;21.80;;
57846;SDS011;43675;50.030;21.952;2023-11-21T00:06:18;25.00;;;23.40;;
57846;SDS011;43675;50.030;21.952;2023-11-21T00:08:44;24.90;;;23.30;;
57846;SDS011;43675;50.030;21.952;2023-11-21T00:11:11;26.50;;;24.50;;
57846;SDS011;43675;50.030;21.952;2023-11-21T00:13:37;25.40;;;23.60;;
57846;SDS011;43675;50.030;21.952;2023-11-21T00:16:04;23.90;;;22.20;;
57846;SDS011;43675;50.030;21.952;2023-11-21T00:18:31;24.70;;;23.00;;
57846;SDS011;43675;50.030;21.952;2023-11-21T00:20:57;24.70;;;22.80;;
57846;SDS011;43675;50.030;21.952;2023-11-21T00:23:24;24.30;;;22.30;;
57846;SDS011;43675;50.030;21.952;2023-11-21T00:25:51;26.10;;;24.10;;
57846;SDS011;43675;50.030;21.952;2023-11-21T00:28:17;24.20;;;22.40;;
57846;SDS011;43675;50.030;21.952;2023-11-21T00:30:44;24.50;;;22.80;;
57846;SDS011;43675;50.030;21.952;2023-11-21T00:33:10;26.60;;;24.70;;
57846;SDS011;43675;50.030;21.952;2023-11-21T00:35:37;26.00;;;24.20;;
57846;SDS011;43675;50.030;21.952;2023-11-21T00:38:04;27.30;;;25.20;;
57846;SDS011;43675;50.030;21.952;2023-11-21T00:40:30;26.60;;;24.60;;
57846;SDS011;43675;50.030;21.952;2023-11-21T00:42:58;26.70;;;24.70;;
57846;SDS011;43675;50.030;21.952;2023-11-21T00:45:24;26.10;;;24.20;;
57846;SDS011;43675;50.030;21.952;2023-11-21T00:47:51;30.30;;;27.90;;
57846;SDS011;43675;50.030;21.952;2023-11-21T00:50:18;32.40;;;29.80;;
57846;SDS011;43675;50.030;21.952;2023-11-21T00:52:44;32.30;;;29.40;;
57846;SDS011;43675;50.030;21.952;2023-11-21T00:55:11;37.20;;;33.60;;
57846;SDS011;43675;50.030;21.952;2023-11-21T00:57:37;31.10;;;28.40;;
57846;SDS011;43675;50.030;21.952;2023-11-21T01:00:04;32.40;;;29.70;;
57846;SDS011;43675;50.030;21.952;2023-11-21T01:02:31;30.40;;;27.90;;
57846;SDS011;43675;50.030;21.952;2023-11-21T01:04:58;30.70;;;28.20;;
57846;SDS011;43675;50.030;21.952;2023-11-21T01:07:24;28.50;;;26.30;;
57846;SDS011;43675;50.030;21.952;2023-11-21T01:09:51;27.50;;;25.40;;
57846;SDS011;43675;50.030;21.952;2023-11-21T01:12:18;26.60;;;24.60;;
57846;SDS011;43675;50.030;21.952;2023-11-21T01:14:44;27.50;;;25.40;;
57846;SDS011;43675;50.030;21.952;2023-11-21T01:17:11;27.80;;;25.70;;
57846;SDS011;43675;50.030;21.952;2023-11-21T01:19:37;28.00;;;25.90;;
57846;SDS011;43675;50.030;21.952;2023-11-21T01:22:04;28.20;;;25.90;;
57846;SDS011;43675;50.030;21.952;2023-11-21T01:24:31;25.70;;;23.80;;
57846;SDS011;43675;50.030;21.952;2023-11-21T01:26:57;26.10;;;24.20;;
57846;SDS011;43675;50.030;21.952;2023-11-21T01:29:24;28.00;;;25.80;;
57846;SDS011;43675;50.030;21.952;2023-11-21T01:31:50;26.90;;;24.90;;
57846;SDS011;43675;50.030;21.952;2023-11-21T01:34:17;26.60;;;24.60;;
57846;SDS011;43675;50.030;21.952;2023-11-21T01:36:45;25.80;;;23.90;;
57846;SDS011;43675;50.030;21.952;2023-11-21T01:39:12;26.50;;;24.50;;
57846;SDS011;43675;50.030;21.952;2023-11-21T01:41:39;27.10;;;25.00;;
57846;SDS011;43675;50.030;21.952;2023-11-21T01:44:05;27.20;;;25.20;;
57846;SDS011;43675;50.030;21.952;2023-11-21T01:46:32;26.40;;;24.50;;
57846;SDS011;43675;50.030;21.952;2023-11-21T01:48:58;26.70;;;24.70;;
57846;SDS011;43675;50.030;21.952;2023-11-21T01:51:25;27.80;;;25.70;;
57846;SDS011;43675;50.030;21.952;2023-11-21T01:53:51;27.40;;;25.30;;
57846;SDS011;43675;50.030;21.952;2023-11-21T01:56:18;27.10;;;25.00;;
57846;SDS011;43675;50.030;21.952;2023-11-21T01:58:45;28.40;;;26.10;;
57846;SDS011;43675;50.030;21.952;2023-11-21T02:01:12;26.60;;;24.70;;
57846;SDS011;43675;50.030;21.952;2023-11-21T02:03:38;27.40;;;25.40;;
57846;SDS011;43675;50.030;21.952;2023-11-21T02:06:05;26.20;;;24.40;;
57846;SDS011;43675;50.030;21.952;2023-11-21T02:08:32;25.30;;;23.50;;
57846;SDS011;43675;50.030;21.952;2023-11-21T02:10:59;25.80;;;24.00;;
57846;SDS011;43675;50.030;21.952;2023-11-21T02:13:25;25.00;;;23.20;;
57846;SDS011;43675;50.030;21.952;2023-11-21T02:15:52;25.50;;;23.70;;
57846;SDS011;43675;50.030;21.952;2023-11-21T02:18:18;24.80;;;23.10;;
57846;SDS011;43675;50.030;21.952;2023-11-21T02:20:45;25.50;;;23.60;;
57846;SDS011;43675;50.030;21.952;2023-11-21T02:23:12;24.80;;;23.10;;
57846;SDS011;43675;50.030;21.952;2023-11-21T02:25:38;25.30;;;23.50;;
57846;SDS011;43675;50.030;21.952;2023-11-21T02:28:05;26.80;;;24.90;;
57846;SDS011;43675;50.030;21.952;2023-11-21T02:30:31;26.90;;;25.00;;
57846;SDS011;43675;50.030;21.952;2023-11-21T02:32:59;26.60;;;24.70;;
57846;SDS011;43675;50.030;21.952;2023-11-21T02:35:26;27.90;;;25.80;;
57846;SDS011;43675;50.030;21.952;2023-11-21T02:37:53;27.50;;;25.60;;
57846;SDS011;43675;50.030;21.952;2023-11-21T02:40:20;27.80;;;25.80;;
57846;SDS011;43675;50.030;21.952;2023-11-21T02:42:47;26.90;;;25.00;;
57846;SDS011;43675;50.030;21.952;2023-11-21T02:45:14;26.50;;;24.60;;
57846;SDS011;43675;50.030;21.952;2023-11-21T02:47:41;26.60;;;24.80;;
57846;SDS011;43675;50.030;21.952;2023-11-21T02:50:07;25.00;;;23.20;;
57846;SDS011;43675;50.030;21.952;2023-11-21T02:52:35;23.10;;;21.30;;
57846;SDS011;43675;50.030;21.952;2023-11-21T02:55:02;22.00;;;20.30;;
57846;SDS011;43675;50.030;21.952;2023-11-21T02:57:30;23.90;;;22.20;;
57846;SDS011;43675;50.030;21.952;2023-11-21T02:59:57;23.90;;;22.20;;
57846;SDS011;43675;50.030;21.952;2023-11-21T03:02:23;23.00;;;21.30;;
57846;SDS011;43675;50.030;21.952;2023-11-21T03:04:50;24.90;;;23.20;;
57846;SDS011;43675;50.030;21.952;2023-11-21T03:07:16;24.00;;;22.30;;
57846;SDS011;43675;50.030;21.952;2023-11-21T03:09:43;24.90;;;23.10;;
57846;SDS011;43675;50.030;21.952;2023-11-21T03:12:10;24.80;;;23.00;;
57846;SDS011;43675;50.030;21.952;2023-11-21T03:14:36;23.50;;;21.90;;
57846;SDS011;43675;50.030;21.952;2023-11-21T03:17:03;25.70;;;24.00;;
57846;SDS011;43675;50.030;21.952;2023-11-21T03:19:30;25.80;;;23.80;;
57846;SDS011;43675;50.030;21.952;2023-11-21T03:21:57;24.60;;;22.80;;
57846;SDS011;43675;50.030;21.952;2023-11-21T03:24:23;24.50;;;22.80;;
57846;SDS011;43675;50.030;21.952;2023-11-21T03:26:50;24.70;;;22.80;;
57846;SDS011;43675;50.030;21.952;2023-11-21T03:29:16;24.10;;;22.30;;
57846;SDS011;43675;50.030;21.952;2023-11-21T03:31:43;24.60;;;22.80;;
57846;SDS011;43675;50.030;21.952;2023-11-21T03:34:15;25.00;;;23.30;;
57846;SDS011;43675;50.030;21.952;2023-11-21T03:36:43;25.10;;;23.30;;
57846;SDS011;43675;50.030;21.952;2023-11-21T03:39:09;24.60;;;22.80;;
57846;SDS011;43675;50.030;21.952;2023-11-21T03:41:36;23.00;;;21.40;;
57846;SDS011;43675;50.030;21.952;2023-11-21T03:44:03;23.40;;;21.60;;
57846;SDS011;43675;50.030;21.952;2023-11-21T03:46:30;23.60;;;22.00;;
57846;SDS011;43675;50.030;21.952;2023-11-21T03:48:56;24.70;;;22.90;;
57846;SDS011;43675;50.030;21.952;2023-11-21T03:51:23;21.90;;;20.20;;
57846;SDS011;43675;50.030;21.952;2023-11-21T03:53:50;22.70;;;20.90;;
57846;SDS011;43675;50.030;21.952;2023-11-21T03:56:16;25.90;;;23.80;;
57846;SDS011;43675;50.030;21.952;2023-11-21T03:58:43;26.30;;;24.40;;
57846;SDS011;43675;50.030;21.952;2023-11-21T04:01:09;26.30;;;24.40;;
57846;SDS011;43675;50.030;21.952;2023-11-21T04:03:36;24.80;;;23.00;;
57846;SDS011;43675;50.030;21.952;2023-11-21T04:06:02;26.20;;;24.30;;
57846;SDS011;43675;50.030;21.952;2023-11-21T04:08:29;26.10;;;24.10;;
57846;SDS011;43675;50.030;21.952;2023-11-21T04:10:56;26.90;;;24.80;;
57846;SDS011;43675;50.030;21.952;2023-11-21T04:13:22;23.90;;;22.00;;
57846;SDS011;43675;50.030;21.952;2023-11-21T04:15:49;24.10;;;22.10;;
57846;SDS011;43675;50.030;21.952;2023-11-21T04:18:16;26.70;;;24.50;;
57846;SDS011;43675;50.030;21.952;2023-11-21T04:20:42;25.20;;;23.20;;
57846;SDS011;43675;50.030;21.952;2023-11-21T04:23:09;26.20;;;24.00;;
57846;SDS011;43675;50.030;21.952;2023-11-21T04:25:35;24.60;;;22.60;;
57846;SDS011;43675;50.030;21.952;2023-11-21T04:28:02;24.40;;;22.40;;
57846;SDS011;43675;50.030;21.952;2023-11-21T04:30:28;24.40;;;22.40;;
57846;SDS011;43675;50.030;21.952;2023-11-21T04:32:55;24.40;;;22.50;;
57846;SDS011;43675;50.030;21.952;2023-11-21T04:35:21;22.80;;;21.00;;
57846;SDS011;43675;50.030;21.952;2023-11-21T04:37:48;23.90;;;21.90;;
57846;SDS011;43675;50.030;21.952;2023-11-21T04:40:15;22.80;;;20.90;;
57846;SDS011;43675;50.030;21.952;2023-11-21T04:42:41;21.80;;;20.00;;
57846;SDS011;43675;50.030;21.952;2023-11-21T04:45:08;22.30;;;20.40;;
57846;SDS011;43675;50.030;21.952;2023-11-21T04:47:35;22.30;;;20.40;;
57846;SDS011;43675;50.030;21.952;2023-11-21T04:50:02;22.30;;;20.40;;
57846;SDS011;43675;50.030;21.952;2023-11-21T04:52:30;20.70;;;19.10;;
57846;SDS011;43675;50.030;21.952;2023-11-21T04:54:57;20.90;;;19.40;;
57846;SDS011;43675;50.030;21.952;2023-11-21T04:57:24;20.90;;;19.40;;
57846;SDS011;43675;50.030;21.952;2023-11-21T04:59:50;21.50;;;19.90;;
57846;SDS011;43675;50.030;21.952;2023-11-21T05:02:17;22.50;;;20.70;;
57846;SDS011;43675;50.030;21.952;2023-11-21T05:04:44;20.80;;;19.40;;
57846;SDS011;43675;50.030;21.952;2023-11-21T05:07:10;20.90;;;19.40;;
57846;SDS011;43675;50.030;21.952;2023-11-21T05:09:40;21.20;;;19.70;;
57846;SDS011;43675;50.030;21.952;2023-11-21T05:12:07;21.70;;;20.20;;
57846;SDS011;43675;50.030;21.952;2023-11-21T05:14:34;21.70;;;20.10;;
57846;SDS011;43675;50.030;21.952;2023-11-21T05:17:01;21.10;;;19.60;;
57846;SDS011;43675;50.030;21.952;2023-11-21T05:19:27;21.20;;;19.60;;
57846;SDS011;43675;50.030;21.952;2023-11-21T05:21:54;20.90;;;19.40;;
57846;SDS011;43675;50.030;21.952;2023-11-21T05:24:21;21.80;;;20.20;;
57846;SDS011;43675;50.030;21.952;2023-11-21T05:26:47;20.50;;;19.00;;
57846;SDS011;43675;50.030;21.952;2023-11-21T05:29:14;20.50;;;18.90;;
57846;SDS011;43675;50.030;21.952;2023-11-21T05:31:40;21.80;;;20.20;;
57846;SDS011;43675;50.030;21.952;2023-11-21T05:34:07;21.50;;;20.00;;
57846;SDS011;43675;50.030;21.952;2023-11-21T05:36:34;21.60;;;19.90;;
57846;SDS011;43675;50.030;21.952;2023-11-21T05:39:00;21.10;;;19.60;;
57846;SDS011;43675;50.030;21.952;2023-11-21T05:41:27;21.30;;;19.80;;
57846;SDS011;43675;50.030;21.952;2023-11-21T05:43:53;21.80;;;20.20;;
57846;SDS011;43675;50.030;21.952;2023-11-21T05:46:20;21.50;;;20.00;;
57846;SDS011;43675;50.030;21.952;2023-11-21T05:48:47;21.10;;;19.50;;
57846;SDS011;43675;50.030;21.952;2023-11-21T05:51:13;21.10;;;19.50;;
57846;SDS011;43675;50.030;21.952;2023-11-21T05:53:40;21.40;;;19.90;;
57846;SDS011;43675;50.030;21.952;2023-11-21T05:56:07;20.20;;;18.80;;
57846;SDS011;43675;50.030;21.952;2023-11-21T05:58:33;19.80;;;18.20;;
57846;SDS011;43675;50.030;21.952;2023-11-21T06:01:00;20.00;;;18.60;;
57846;SDS011;43675;50.030;21.952;2023-11-21T06:03:27;20.00;;;18.50;;
57846;SDS011;43675;50.030;21.952;2023-11-21T06:05:53;20.00;;;18.40;;
57846;SDS011;43675;50.030;21.952;2023-11-21T06:08:20;21.80;;;20.00;;
57846;SDS011;43675;50.030;21.952;2023-11-21T06:10:46;23.00;;;21.40;;
57846;SDS011;43675;50.030;21.952;2023-11-21T06:13:13;21.70;;;20.10;;
57846;SDS011;43675;50.030;21.952;2023-11-21T06:15:39;22.40;;;20.60;;
57846;SDS011;43675;50.030;21.952;2023-11-21T06:18:06;21.80;;;20.10;;
57846;SDS011;43675;50.030;21.952;2023-11-21T06:20:32;21.80;;;20.10;;
57846;SDS011;43675;50.030;21.952;2023-11-21T06:22:59;21.80;;;20.00;;
57846;SDS011;43675;50.030;21.952;2023-11-21T06:25:26;23.20;;;21.40;;
57846;SDS011;43675;50.030;21.952;2023-11-21T06:27:52;23.40;;;21.70;;
57846;SDS011;43675;50.030;21.952;2023-11-21T06:30:19;21.70;;;20.00;;
57846;SDS011;43675;50.030;21.952;2023-11-21T06:32:45;23.40;;;21.60;;
57846;SDS011;43675;50.030;21.952;2023-11-21T06:35:13;23.20;;;21.20;;
57846;SDS011;43675;50.030;21.952;2023-11-21T06:37:39;21.90;;;20.00;;
57846;SDS011;43675;50.030;21.952;2023-11-21T06:40:06;21.80;;;20.10;;
57846;SDS011;43675;50.030;21.952;2023-11-21T06:42:33;22.30;;;20.40;;
57846;SDS011;43675;50.030;21.952;2023-11-21T06:45:00;21.90;;;20.20;;
57846;SDS011;43675;50.030;21.952;2023-11-21T06:47:27;21.90;;;20.10;;
57846;SDS011;43675;50.030;21.952;2023-11-21T06:49:53;22.10;;;20.30;;
57846;SDS011;43675;50.030;21.952;2023-11-21T06:52:20;21.90;;;20.20;;
57846;SDS011;43675;50.030;21.952;2023-11-21T06:54:47;22.40;;;20.50;;
57846;SDS011;43675;50.030;21.952;2023-11-21T06:57:14;22.70;;;20.90;;
57846;SDS011;43675;50.030;21.952;2023-11-21T06:59:41;23.40;;;21.50;;
57846;SDS011;43675;50.030;21.952;2023-11-21T07:02:07;23.70;;;21.70;;
57846;SDS011;43675;50.030;21.952;2023-11-21T07:04:34;22.80;;;21.00;;
57846;SDS011;43675;50.030;21.952;2023-11-21T07:07:04;22.60;;;20.80;;
57846;SDS011;43675;50.030;21.952;2023-11-21T07:09:31;23.20;;;21.20;;
57846;SDS011;43675;50.030;21.952;2023-11-21T07:11:57;23.40;;;21.40;;
57846;SDS011;43675;50.030;21.952;2023-11-21T07:14:24;24.10;;;22.10;;
57846;SDS011;43675;50.030;21.952;2023-11-21T07:16:50;23.80;;;21.80;;
57846;SDS011;43675;50.030;21.952;2023-11-21T07:19:17;23.00;;;21.00;;
57846;SDS011;43675;50.030;21.952;2023-11-21T07:21:44;23.90;;;22.00;;
57846;SDS011;43675;50.030;21.952;2023-11-21T07:24:10;23.60;;;21.60;;
57846;SDS011;43675;50.030;21.952;2023-11-21T07:26:37;23.50;;;21.40;;
57846;SDS011;43675;50.030;21.952;2023-11-21T07:29:03;23.60;;;21.60;;
57846;SDS011;43675;50.030;21.952;2023-11-21T07:31:30;23.20;;;21.20;;
57846;SDS011;43675;50.030;21.952;2023-11-21T07:33:56;24.10;;;21.90;;
57846;SDS011;43675;50.030;21.952;2023-11-21T07:36:23;24.40;;;22.20;;
57846;SDS011;43675;50.030;21.952;2023-11-21T07:38:50;24.40;;;22.30;;
57846;SDS011;43675;50.030;21.952;2023-11-21T07:41:17;23.80;;;21.70;;
57846;SDS011;43675;50.030;21.952;2023-11-21T07:43:45;23.10;;;21.10;;
57846;SDS011;43675;50.030;21.952;2023-11-21T07:46:12;22.70;;;20.70;;
57846;SDS011;43675;50.030;21.952;2023-11-21T07:48:39;23.70;;;21.70;;
57846;SDS011;43675;50.030;21.952;2023-11-21T07:51:07;23.30;;;21.20;;
57846;SDS011;43675;50.030;21.952;2023-11-21T07:53:36;22.90;;;20.60;;
57846;SDS011;43675;50.030;21.952;2023-11-21T07:56:03;22.90;;;21.00;;
57846;SDS011;43675;50.030;21.952;2023-11-21T07:58:31;22.40;;;20.50;;
57846;SDS011;43675;50.030;21.952;2023-11-21T08:00:57;22.50;;;20.50;;
57846;SDS011;43675;50.030;21.952;2023-11-21T08:03:24;22.40;;;20.50;;
57846;SDS011;43675;50.030;21.952;2023-11-21T08:05:50;23.40;;;21.30;;
57846;SDS011;43675;50.030;21.952;2023-11-21T08:08:17;24.30;;;22.10;;
57846;SDS011;43675;50.030;21.952;2023-11-21T08:10:44;25.30;;;23.00;;
57846;SDS011;43675;50.030;21.952;2023-11-21T08:13:11;24.10;;;21.90;;
57846;SDS011;43675;50.030;21.952;2023-11-21T08:15:37;23.10;;;21.10;;
57846;SDS011;43675;50.030;21.952;2023-11-21T08:18:04;23.50;;;21.40;;
57846;SDS011;43675;50.030;21.952;2023-11-21T08:20:31;23.90;;;21.80;;
57846;SDS011;43675;50.030;21.952;2023-11-21T08:22:57;24.50;;;22.30;;
57846;SDS011;43675;50.030;21.952;2023-11-21T08:25:24;25.30;;;23.10;;
57846;SDS011;43675;50.030;21.952;2023-11-21T08:27:50;26.30;;;23.90;;
57846;SDS011;43675;50.030;21.952;2023-11-21T08:30:17;25.90;;;23.70;;
57846;SDS011;43675;50.030;21.952;2023-11-21T08:32:44;26.40;;;24.10;;
57846;SDS011;43675;50.030;21.952;2023-11-21T08:35:11;26.70;;;24.40;;
57846;SDS011;43675;50.030;21.952;2023-11-21T08:37:37;27.30;;;24.80;;
57846;SDS011;43675;50.030;21.952;2023-11-21T08:40:04;26.50;;;24.20;;
57846;SDS011;43675;50.030;21.952;2023-11-21T08:42:31;27.80;;;25.30;;
57846;SDS011;43675;50.030;21.952;2023-11-21T08:44:58;27.70;;;25.10;;
57846;SDS011;43675;50.030;21.952;2023-11-21T08:47:24;28.30;;;25.60;;
57846;SDS011;43675;50.030;21.952;2023-11-21T08:49:51;28.30;;;25.60;;
57846;SDS011;43675;50.030;21.952;2023-11-21T08:52:20;28.40;;;25.80;;
57846;SDS011;43675;50.030;21.952;2023-11-21T08:54:47;30.10;;;27.30;;
57846;SDS011;43675;50.030;21.952;2023-11-21T08:57:13;30.90;;;27.80;;
57846;SDS011;43675;50.030;21.952;2023-11-21T08:59:40;28.30;;;25.50;;
57846;SDS011;43675;50.030;21.952;2023-11-21T09:02:06;28.10;;;25.30;;
57846;SDS011;43675;50.030;21.952;2023-11-21T09:04:33;27.50;;;24.80;;
57846;SDS011;43675;50.030;21.952;2023-11-21T09:07:00;28.30;;;25.30;;
57846;SDS011;43675;50.030;21.952;2023-11-21T09:09:26;27.00;;;24.60;;
57846;SDS011;43675;50.030;21.952;2023-11-21T09:11:53;27.30;;;24.80;;
57846;SDS011;43675;50.030;21.952;2023-11-21T09:14:20;26.90;;;24.40;;
57846;SDS011;43675;50.030;21.952;2023-11-21T09:16:46;26.20;;;23.80;;
57846;SDS011;43675;50.030;21.952;2023-11-21T09:19:13;25.60;;;23.30;;
57846;SDS011;43675;50.030;21.952;2023-11-21T09:21:39;24.50;;;22.40;;
57846;SDS011;43675;50.030;21.952;2023-11-21T09:24:06;24.00;;;21.90;;
57846;SDS011;43675;50.030;21.952;2023-11-21T09:26:33;24.40;;;22.00;;
57846;SDS011;43675;50.030;21.952;2023-11-21T09:29:00;23.30;;;21.20;;
57846;SDS011;43675;50.030;21.952;2023-11-21T09:31:26;23.20;;;21.00;;
57846;SDS011;43675;50.030;21.952;2023-11-21T09:33:53;23.30;;;21.20;;
57846;SDS011;43675;50.030;21.952;2023-11-21T09:36:20;23.10;;;21.10;;
57846;SDS011;43675;50.030;21.952;2023-11-21T09:38:46;23.70;;;21.60;;
57846;SDS011;43675;50.030;21.952;2023-11-21T09:41:21;23.40;;;21.40;;
57846;SDS011;43675;50.030;21.952;2023-11-21T09:43:51;23.50;;;21.40;;
57846;SDS011;43675;50.030;21.952;2023-11-21T09:46:23;23.50;;;21.50;;
57846;SDS011;43675;50.030;21.952;2023-11-21T09:48:50;24.20;;;22.00;;
57846;SDS011;43675;50.030;21.952;2023-11-21T09:51:18;25.00;;;22.70;;
57846;SDS011;43675;50.030;21.952;2023-11-21T09:53:46;24.60;;;22.30;;
57846;SDS011;43675;50.030;21.952;2023-11-21T09:56:16;24.90;;;22.80;;
57846;SDS011;43675;50.030;21.952;2023-11-21T09:58:42;24.50;;;22.40;;
57846;SDS011;43675;50.030;21.952;2023-11-21T10:01:09;25.00;;;22.90;;
57846;SDS011;43675;50.030;21.952;2023-11-21T10:03:36;21.80;;;19.90;;
57846;SDS011;43675;50.030;21.952;2023-11-21T10:06:03;20.70;;;18.80;;
57846;SDS011;43675;50.030;21.952;2023-11-21T10:08:30;20.20;;;18.60;;
57846;SDS011;43675;50.030;21.952;2023-11-21T10:10:58;21.80;;;20.00;;
57846;SDS011;43675;50.030;21.952;2023-11-21T10:13:25;22.60;;;20.80;;
57846;SDS011;43675;50.030;21.952;2023-11-21T10:15:54;26.90;;;24.60;;
57846;SDS011;43675;50.030;21.952;2023-11-21T10:18:21;27.30;;;25.10;;
57846;SDS011;43675;50.030;21.952;2023-11-21T10:20:48;30.00;;;27.30;;
57846;SDS011;43675;50.030;21.952;2023-11-21T10:23:15;33.90;;;30.70;;
57846;SDS011;43675;50.030;21.952;2023-11-21T10:25:41;37.30;;;33.70;;
57846;SDS011;43675;50.030;21.952;2023-11-21T10:28:08;38.00;;;34.30;;
57846;SDS011;43675;50.030;21.952;2023-11-21T10:30:38;39.50;;;35.60;;
57846;SDS011;43675;50.030;21.952;2023-11-21T10:33:06;39.00;;;35.00;;
57846;SDS011;43675;50.030;21.952;2023-11-21T10:35:46;39.40;;;35.40;;
57846;SDS011;43675;50.030;21.952;2023-11-21T10:38:14;38.20;;;34.20;;
57846;SDS011;43675;50.030;21.952;2023-11-21T10:40:41;39.00;;;35.00;;
57846;SDS011;43675;50.030;21.952;2023-11-21T10:43:10;41.40;;;37.10;;
57846;SDS011;43675;50.030;21.952;2023-11-21T10:45:37;40.30;;;36.20;;
57846;SDS011;43675;50.030;21.952;2023-11-21T10:48:07;40.70;;;36.70;;
57846;SDS011;43675;50.030;21.952;2023-11-21T10:50:35;43.30;;;38.80;;
57846;SDS011;43675;50.030;21.952;2023-11-21T10:53:02;41.40;;;37.10;;
57846;SDS011;43675;50.030;21.952;2023-11-21T10:55:30;42.60;;;36.70;;
57846;SDS011;43675;50.030;21.952;2023-11-21T10:58:01;42.00;;;37.50;;
57846;SDS011;43675;50.030;21.952;2023-11-21T11:00:29;40.70;;;36.40;;
57846;SDS011;43675;50.030;21.952;2023-11-21T11:02:56;41.40;;;36.90;;
57846;SDS011;43675;50.030;21.952;2023-11-21T11:05:23;41.00;;;36.20;;
57846;SDS011;43675;50.030;21.952;2023-11-21T11:07:51;39.10;;;35.00;;
57846;SDS011;43675;50.030;21.952;2023-11-21T11:10:24;39.60;;;35.40;;
57846;SDS011;43675;50.030;21.952;2023-11-21T11:12:50;40.40;;;36.20;;
57846;SDS011;43675;50.030;21.952;2023-11-21T11:15:17;39.80;;;35.40;;
57846;SDS011;43675;50.030;21.952;2023-11-21T11:17:46;37.80;;;33.70;;
57846;SDS011;43675;50.030;21.952;2023-11-21T11:20:14;39.50;;;35.40;;
57846;SDS011;43675;50.030;21.952;2023-11-21T11:22:44;39.60;;;35.60;;
57846;SDS011;43675;50.030;21.952;2023-11-21T11:28:10;40.70;;;36.40;;
57846;SDS011;43675;50.030;21.952;2023-11-21T11:36:18;44.80;;;37.80;;
57846;SDS011;43675;50.030;21.952;2023-11-21T11:38:51;47.00;;;35.30;;
57846;SDS011;43675;50.030;21.952;2023-11-21T11:41:25;43.90;;;36.90;;
57846;SDS011;43675;50.030;21.952;2023-11-21T11:43:53;42.50;;;37.20;;
57846;SDS011;43675;50.030;21.952;2023-11-21T11:46:20;42.50;;;38.00;;
57846;SDS011;43675;50.030;21.952;2023-11-21T11:49:05;43.30;;;37.50;;
57846;SDS011;43675;50.030;21.952;2023-11-21T11:51:32;42.90;;;38.40;;
57846;SDS011;43675;50.030;21.952;2023-11-21T11:53:58;41.50;;;37.10;;
57846;SDS011;43675;50.030;21.952;2023-11-21T11:56:29;41.20;;;36.40;;
57846;SDS011;43675;50.030;21.952;2023-11-21T11:58:58;42.00;;;37.60;;
57846;SDS011;43675;50.030;21.952;2023-11-21T12:14:48;42.50;;;35.10;;
57846;SDS011;43675;50.030;21.952;2023-11-21T12:17:15;43.80;;;35.20;;
57846;SDS011;43675;50.030;21.952;2023-11-21T12:19:41;44.10;;;38.40;;
57846;SDS011;43675;50.030;21.952;2023-11-21T12:22:08;41.80;;;37.10;;
57846;SDS011;43675;50.030;21.952;2023-11-21T12:24:35;44.90;;;37.10;;
57846;SDS011;43675;50.030;21.952;2023-11-21T12:27:01;52.40;;;47.00;;
57846;SDS011;43675;50.030;21.952;2023-11-21T12:29:28;45.30;;;39.60;;
57846;SDS011;43675;50.030;21.952;2023-11-21T12:31:55;43.80;;;36.10;;
57846;SDS011;43675;50.030;21.952;2023-11-21T12:34:21;43.30;;;35.90;;
57846;SDS011;43675;50.030;21.952;2023-11-21T12:36:48;45.70;;;39.90;;
57846;SDS011;43675;50.030;21.952;2023-11-21T12:39:14;43.60;;;38.40;;
57846;SDS011;43675;50.030;21.952;2023-11-21T12:41:41;43.10;;;38.10;;
57846;SDS011;43675;50.030;21.952;2023-11-21T12:44:12;43.20;;;36.30;;
57846;SDS011;43675;50.030;21.952;2023-11-21T12:46:40;41.70;;;36.40;;
57846;SDS011;43675;50.030;21.952;2023-11-21T12:49:08;44.50;;;36.50;;
57846;SDS011;43675;50.030;21.952;2023-11-21T12:51:37;51.70;;;40.10;;
57846;SDS011;43675;50.030;21.952;2023-11-21T12:54:04;77.40;;;44.10;;
57846;SDS011;43675;50.030;21.952;2023-11-21T12:56:32;69.10;;;45.20;;
57846;SDS011;43675;50.030;21.952;2023-11-21T12:58:58;96.90;;;44.90;;
57846;SDS011;43675;50.030;21.952;2023-11-21T13:01:25;165.30;;;51.80;;
57846;SDS011;43675;50.030;21.952;2023-11-21T13:03:52;139.70;;;48.30;;
57846;SDS011;43675;50.030;21.952;2023-11-21T13:06:19;191.80;;;48.90;;
57846;SDS011;43675;50.030;21.952;2023-11-21T13:08:45;225.00;;;51.40;;
57846;SDS011;43675;50.030;21.952;2023-11-21T13:11:13;191.30;;;52.80;;
57846;SDS011;43675;50.030;21.952;2023-11-21T13:13:41;223.20;;;55.00;;
57846;SDS011;43675;50.030;21.952;2023-11-21T13:16:08;207.70;;;57.20;;
57846;SDS011;43675;50.030;21.952;2023-11-21T13:18:35;189.10;;;52.40;;
57846;SDS011;43675;50.030;21.952;2023-11-21T13:21:02;211.70;;;55.20;;
57846;SDS011;43675;50.030;21.952;2023-11-21T13:23:34;201.50;;;58.70;;
57846;SDS011;43675;50.030;21.952;2023-11-21T13:26:01;267.20;;;61.70;;
57846;SDS011;43675;50.030;21.952;2023-11-21T13:28:28;219.50;;;58.30;;
57846;SDS011;43675;50.030;21.952;2023-11-21T13:30:54;233.40;;;61.30;;
57846;SDS011;43675;50.030;21.952;2023-11-21T13:33:21;195.50;;;57.20;;
57846;SDS011;43675;50.030;21.952;2023-11-21T13:35:47;171.90;;;56.70;;
57846;SDS011;43675;50.030;21.952;2023-11-21T13:38:15;169.90;;;58.20;;
57846;SDS011;43675;50.030;21.952;2023-11-21T13:40:46;166.00;;;59.40;;
57846;SDS011;43675;50.030;21.952;2023-11-21T13:43:18;162.00;;;59.50;;
57846;SDS011;43675;50.030;21.952;2023-11-21T13:45:46;176.30;;;57.80;;
57846;SDS011;43675;50.030;21.952;2023-11-21T13:48:14;206.30;;;58.60;;
57846;SDS011;43675;50.030;21.952;2023-11-21T13:50:41;249.10;;;57.90;;
57846;SDS011;43675;50.030;21.952;2023-11-21T13:53:12;251.60;;;58.50;;
57846;SDS011;43675;50.030;21.952;2023-11-21T13:55:38;170.70;;;55.00;;
57846;SDS011;43675;50.030;21.952;2023-11-21T13:58:05;274.70;;;61.70;;
57846;SDS011;43675;50.030;21.952;2023-11-21T14:00:32;247.70;;;63.80;;
57846;SDS011;43675;50.030;21.952;2023-11-21T14:02:58;300.30;;;65.60;;
57846;SDS011;43675;50.030;21.952;2023-11-21T14:05:25;315.70;;;65.90;;
57846;SDS011;43675;50.030;21.952;2023-11-21T14:07:51;202.40;;;61.30;;
57846;SDS011;43675;50.030;21.952;2023-11-21T14:10:18;232.80;;;61.20;;
57846;SDS011;43675;50.030;21.952;2023-11-21T14:12:44;262.60;;;61.80;;
57846;SDS011;43675;50.030;21.952;2023-11-21T14:15:11;291.10;;;62.00;;
57846;SDS011;43675;50.030;21.952;2023-11-21T14:17:38;222.60;;;59.40;;
57846;SDS011;43675;50.030;21.952;2023-11-21T14:20:04;210.20;;;62.20;;
57846;SDS011;43675;50.030;21.952;2023-11-21T14:22:32;255.40;;;65.80;;
57846;SDS011;43675;50.030;21.952;2023-11-21T14:24:58;207.80;;;60.70;;
57846;SDS011;43675;50.030;21.952;2023-11-21T14:27:25;182.90;;;60.70;;
57846;SDS011;43675;50.030;21.952;2023-11-21T14:29:52;193.40;;;61.70;;